Time;durP1;ratioP1;P1;durP2;ratioP2;P2;SDS_P1;SDS_P2;PMS_P1;PMS_P2;Temp;Humidity;BMP_temperature;BMP_pressure;BME280_temperature;BME280_humidity;BME280_pressure;Samples;Min_cycle;Max_cycle;Signal;HPM_P1;HPM_P2
2022/08/14 00:01:14;;;;;;;98.68;94.13;;;;;;;31.89;25.24;101003.78;4901650;29;20407;-78
2022/08/14 00:03:39;;;;;;;97.93;93.32;;;;;;;31.85;24.97;101004.94;4919115;29;20104;-82
2022/08/14 00:06:05;;;;;;;98.93;94.47;;;;;;;31.83;25.26;101010.91;4919191;29;20032;-79
2022/08/14 00:08:30;;;;;;;99.82;95.32;;;;;;;31.78;25.12;100997.28;4919101;29;20091;-86
2022/08/14 00:10:56;;;;;;;98.63;93.82;;;;;;;31.76;25.52;100996.06;4919413;29;20060;-79
2022/08/14 00:13:27;;;;;;;95.78;91.18;;;;;;;31.72;25.49;100990.41;4918905;29;20067;-77
2022/08/14 00:15:54;;;;;;;100.35;95.43;;;;;;;31.69;25.54;100992.00;4919272;29;20039;-79
2022/08/14 00:18:22;;;;;;;95.38;90.82;;;;;;;31.64;25.61;100981.16;4919124;29;20028;-79
2022/08/14 00:20:47;;;;;;;96.95;92.55;;;;;;;31.61;25.63;100981.13;4918757;29;20080;-79
2022/08/14 00:23:14;;;;;;;96.35;91.95;;;;;;;31.58;25.72;100973.53;4919100;29;20035;-78
2022/08/14 00:25:41;;;;;;;97.85;93.15;;;;;;;31.54;25.63;100976.25;4918380;29;20460;-78
2022/08/14 00:28:11;;;;;;;95.80;91.35;;;;;;;31.52;25.78;100972.22;4918363;29;20050;-78
2022/08/14 00:30:37;;;;;;;96.70;92.30;;;;;;;31.47;26.07;100973.38;4917241;29;20028;-78
2022/08/14 00:33:03;;;;;;;96.25;91.72;;;;;;;31.44;25.83;100971.34;4918604;29;20032;-80
2022/08/14 00:35:30;;;;;;;99.63;94.82;;;;;;;31.39;25.94;100966.91;4918507;29;20124;-78
2022/08/14 00:37:56;;;;;;;96.40;91.82;;;;;;;31.36;26.02;100966.84;4917953;29;20352;-79
2022/08/14 00:40:21;;;;;;;93.68;89.28;;;;;;;31.32;26.08;100957.59;4918506;29;20028;-80
2022/08/14 00:42:48;;;;;;;95.38;90.97;;;;;;;31.28;26.29;100957.56;4918468;29;20028;-78
2022/08/14 00:45:14;;;;;;;93.65;89.13;;;;;;;31.26;25.98;100959.94;4918349;29;20493;-79
2022/08/14 00:47:42;;;;;;;93.93;89.68;;;;;;;31.23;26.07;100958.69;4918256;29;20461;-79
2022/08/14 00:50:09;;;;;;;97.38;92.78;;;;;;;31.18;25.99;100956.25;4918310;29;20528;-77
2022/08/14 00:52:35;;;;;;;93.07;88.75;;;;;;;31.16;25.68;100946.66;4918515;29;20046;-78
2022/08/14 00:55:02;;;;;;;96.28;91.32;;;;;;;31.13;26.28;100947.41;4918071;29;20456;-77
2022/08/14 00:57:30;;;;;;;93.82;89.47;;;;;;;31.09;26.31;100946.53;4918563;29;20040;-78
2022/08/14 00:59:56;;;;;;;94.38;89.57;;;;;;;31.04;26.26;100940.09;4918372;29;20428;-77
2022/08/14 01:02:23;;;;;;;93.22;88.82;;;;;;;31.01;26.43;100934.47;4918064;29;20091;-76
2022/08/14 01:04:51;;;;;;;92.10;87.75;;;;;;;30.97;26.37;100930.84;4917005;29;20385;-77
2022/08/14 01:07:19;;;;;;;92.18;87.82;;;;;;;30.94;26.19;100926.00;4919767;29;20028;-79
2022/08/14 01:09:50;;;;;;;95.43;90.82;;;;;;;30.91;26.73;100932.34;4920033;29;20130;-77
2022/08/14 01:12:17;;;;;;;91.85;87.57;;;;;;;30.87;26.51;100926.75;4921402;29;20476;-77
2022/08/14 01:14:43;;;;;;;95.68;90.75;;;;;;;30.83;26.48;100926.66;4920918;29;20123;-78
2022/08/14 01:17:10;;;;;;;91.95;87.75;;;;;;;30.80;26.62;100930.19;4919024;29;20520;-77
2022/08/14 01:22:19;;;;;;;92.80;88.45;;;;;;;30.73;26.66;100924.50;4917688;29;20172;-77
2022/08/14 01:24:46;;;;;;;92.95;88.32;;;;;;;30.70;26.76;100918.88;4918144;29;20036;-77
2022/08/14 01:27:17;;;;;;;91.45;87.05;;;;;;;30.66;26.81;100912.44;4918628;29;20084;-77
2022/08/14 01:29:45;;;;;;;94.68;90.28;;;;;;;30.61;26.98;100914.38;4919406;29;20468;-78
2022/08/14 01:32:11;;;;;;;91.03;86.82;;;;;;;30.59;27.02;100908.38;4917945;29;20040;-76
2022/08/14 01:34:36;;;;;;;90.28;86.03;;;;;;;30.55;26.56;100918.66;4919250;29;20040;-78
2022/08/14 01:37:03;;;;;;;91.85;86.93;;;;;;;30.52;27.07;100918.63;4917496;29;20476;-77
2022/08/14 01:39:29;;;;;;;91.82;87.30;;;;;;;30.49;26.88;100917.38;4918251;29;20063;-77
2022/08/14 01:41:59;;;;;;;91.57;87.32;;;;;;;30.46;26.93;100923.69;4916650;29;20068;-77
2022/08/14 01:44:28;;;;;;;89.18;84.68;;;;;;;30.43;27.18;100921.66;4917888;29;20150;-78
2022/08/14 01:46:58;;;;;;;91.72;87.53;;;;;;;30.39;27.38;100921.63;4901261;29;20052;-77
2022/08/14 01:49:25;;;;;;;91.28;86.82;;;;;;;30.36;27.00;100929.91;4917507;29;20052;-77
2022/08/14 01:51:55;;;;;;;92.72;88.10;;;;;;;30.32;27.19;100923.47;4917502;29;20036;-77
2022/08/14 01:54:22;;;;;;;89.47;85.25;;;;;;;30.29;27.18;100911.09;4918005;29;20086;-77
2022/08/14 01:56:54;;;;;;;93.65;89.25;;;;;;;30.26;27.03;100911.03;4917155;29;20032;-78
2022/08/14 01:59:23;;;;;;;91.90;87.60;;;;;;;30.22;27.23;100910.94;4916261;29;20473;-76
2022/08/14 02:01:53;;;;;;;90.65;86.35;;;;;;;30.19;27.15;100909.72;4915828;29;20043;-76
2022/08/14 02:04:20;;;;;;;95.43;90.53;;;;;;;30.16;27.28;100910.47;4917742;29;20036;-79
2022/08/14 02:06:49;;;;;;;88.40;84.20;;;;;;;30.12;27.50;100908.78;4917057;29;20032;-77
2022/08/14 02:09:16;;;;;;;89.57;85.18;;;;;;;30.09;26.97;100912.28;4917821;29;20028;-77
2022/08/14 02:11:42;;;;;;;96.18;91.47;;;;;;;30.07;27.16;100909.09;4915804;29;20119;-77
2022/08/14 02:14:11;;;;;;;89.80;85.45;;;;;;;30.02;27.29;100901.84;4917269;29;20190;-77
2022/08/14 02:16:40;;;;;;;87.32;83.22;;;;;;;29.98;27.41;100898.19;4917309;29;20040;-77
2022/08/14 02:19:10;;;;;;;92.25;87.75;;;;;;;29.95;27.24;100899.75;4916797;29;20408;-76
2022/08/14 02:21:36;;;;;;;90.03;85.82;;;;;;;29.92;27.75;100894.13;4916130;29;20032;-76
2022/08/14 02:24:03;;;;;;;89.45;85.20;;;;;;;29.88;27.67;100896.81;4918113;29;20115;-78
2022/08/14 02:26:33;;;;;;;87.20;82.90;;;;;;;29.85;27.72;100883.66;4921024;29;20058;-77
2022/08/14 02:29:04;;;;;;;88.32;83.82;;;;;;;29.81;27.61;100890.31;4921472;29;20040;-77
2022/08/14 02:31:33;;;;;;;87.72;83.30;;;;;;;29.79;27.90;100898.25;4920832;29;20492;-77
2022/08/14 02:33:59;;;;;;;90.55;85.97;;;;;;;29.75;27.68;100893.41;4920701;29;20032;-77
2022/08/14 02:36:26;;;;;;;87.57;83.28;;;;;;;29.73;27.40;100895.75;4920779;29;20044;-77
2022/08/14 02:38:51;;;;;;;88.25;84.05;;;;;;;29.68;27.67;100886.91;4920915;29;20036;-80
2022/08/14 02:41:17;;;;;;;87.93;83.07;;;;;;;29.65;27.76;100890.41;4920650;29;20054;-77
2022/08/14 02:43:42;;;;;;;88.40;83.65;;;;;;;29.62;27.81;100897.53;4920707;29;20127;-76
2022/08/14 02:46:10;;;;;;;90.15;85.80;;;;;;;29.59;28.01;100898.28;4919303;29;20039;-77
2022/08/14 02:48:42;;;;;;;85.55;81.25;;;;;;;29.55;27.87;100889.84;4920561;29;20499;-78
2022/08/14 02:51:11;;;;;;;88.95;84.50;;;;;;;29.52;28.10;100885.00;4920999;29;20052;-79
2022/08/14 02:53:44;;;;;;;87.68;83.35;;;;;;;29.48;27.99;100878.59;4920672;29;20032;-78
2022/08/14 02:56:14;;;;;;;88.32;84.10;;;;;;;29.46;28.19;100874.53;4920124;29;20036;-77
2022/08/14 02:58:43;;;;;;;88.03;83.65;;;;;;;29.42;27.97;100866.13;4920359;29;20487;-77
2022/08/14 03:01:09;;;;;;;88.88;84.07;;;;;;;29.40;28.28;100870.47;4919017;29;20464;-78
2022/08/14 03:03:36;;;;;;;92.82;88.40;;;;;;;29.35;28.31;100866.00;4920207;29;20032;-77
2022/08/14 03:06:06;;;;;;;90.72;85.93;;;;;;;29.31;28.03;100871.50;4919009;29;20036;-75
2022/08/14 03:08:32;;;;;;;86.80;82.50;;;;;;;29.28;28.30;100869.47;4920178;29;20071;-76
2022/08/14 03:11:00;;;;;;;87.00;82.10;;;;;;;29.26;28.49;100860.66;4918687;29;20086;-79
2022/08/14 03:13:27;;;;;;;87.90;83.60;;;;;;;29.23;28.47;100874.50;4920073;29;20506;-77
2022/08/14 03:15:53;;;;;;;82.25;77.65;;;;;;;29.19;28.68;100868.88;4919990;29;20064;-77
2022/08/14 03:18:23;;;;;;;90.03;85.72;;;;;;;29.16;28.37;100864.03;4919961;29;20046;-78
2022/08/14 03:20:49;;;;;;;85.95;81.68;;;;;;;29.12;28.57;100865.94;4919663;29;20392;-80
2022/08/14 03:23:16;;;;;;;88.57;83.80;;;;;;;29.10;28.45;100865.50;4920414;29;20033;-78
2022/08/14 03:25:41;;;;;;;87.47;83.03;;;;;;;29.06;28.53;100854.31;4918487;29;20091;-78
2022/08/14 03:28:09;;;;;;;88.63;84.13;;;;;;;29.04;28.85;100855.81;4918515;29;20033;-79
2022/08/14 03:30:36;;;;;;;84.33;80.03;;;;;;;29.01;28.56;100853.78;4919998;29;20168;-79
2022/08/14 03:33:01;;;;;;;83.80;79.38;;;;;;;28.97;28.57;100850.91;4919645;29;20264;-79
2022/08/14 03:35:28;;;;;;;86.20;81.50;;;;;;;28.94;28.73;100856.41;4918706;29;20043;-79
2022/08/14 03:37:54;;;;;;;83.68;79.30;;;;;;;28.90;28.66;100859.91;4919645;29;20028;-78
2022/08/14 03:40:21;;;;;;;85.55;81.13;;;;;;;28.87;28.92;100860.63;4919573;29;20436;-78
2022/08/14 03:42:47;;;;;;;85.68;81.47;;;;;;;28.84;28.76;100850.22;4919533;29;20046;-78
2022/08/14 03:45:14;;;;;;;85.05;80.47;;;;;;;28.82;28.73;100851.78;4919146;29;20028;-77
2022/08/14 03:47:39;;;;;;;84.80;80.55;;;;;;;28.78;28.93;100853.66;4918745;29;20032;-76
2022/08/14 03:50:10;;;;;;;88.13;83.70;;;;;;;28.77;28.87;100854.84;4919273;29;20437;-76
2022/08/14 03:52:37;;;;;;;81.80;77.50;;;;;;;28.71;29.05;100854.31;4920103;29;20147;-77
2022/08/14 03:55:10;;;;;;;84.07;79.97;;;;;;;28.68;29.04;100846.72;4920062;29;20063;-78
2022/08/14 03:57:36;;;;;;;81.47;77.30;;;;;;;28.65;28.91;100852.97;4919300;29;20459;-77
2022/08/14 04:00:07;;;;;;;86.82;82.10;;;;;;;28.62;28.89;100848.16;4918908;29;20036;-81
2022/08/14 04:02:33;;;;;;;83.72;79.10;;;;;;;28.59;28.89;100848.88;4919472;29;20032;-79
2022/08/14 04:05:00;;;;;;;81.05;77.00;;;;;;;28.55;29.26;100843.25;4918923;29;20507;-77
2022/08/14 04:07:26;;;;;;;81.25;77.05;;;;;;;28.53;28.99;100847.56;4918724;29;20061;-77
2022/08/14 04:09:51;;;;;;;79.57;75.40;;;;;;;28.50;29.16;100839.94;4919335;29;20453;-76
2022/08/14 04:12:18;;;;;;;83.10;78.53;;;;;;;28.46;28.96;100840.66;4918904;29;20117;-77
2022/08/14 04:14:44;;;;;;;78.68;74.45;;;;;;;28.43;29.53;100841.38;4918727;29;20084;-76
2022/08/14 04:17:10;;;;;;;84.15;79.85;;;;;;;28.40;29.07;100842.09;4919148;29;20032;-78
2022/08/14 04:19:36;;;;;;;85.53;80.68;;;;;;;28.38;29.10;100847.22;4919143;29;20036;-77
2022/08/14 04:22:02;;;;;;;81.28;76.97;;;;;;;28.35;29.44;100836.00;4917301;29;20047;-79
2022/08/14 04:24:27;;;;;;;82.20;77.70;;;;;;;28.31;29.60;100832.34;4919546;29;20032;-76
2022/08/14 04:26:53;;;;;;;80.10;75.72;;;;;;;28.29;29.52;100831.91;4918860;29;20028;-77
2022/08/14 04:29:19;;;;;;;80.75;76.60;;;;;;;28.25;29.20;100817.94;4918694;29;20032;-76
2022/08/14 04:31:45;;;;;;;79.30;75.05;;;;;;;28.22;29.61;100819.47;4917458;29;20084;-77
2022/08/14 04:34:11;;;;;;;82.47;77.53;;;;;;;28.19;29.64;100809.06;4918480;29;20502;-77
2022/08/14 04:43:34;;;;;;;81.97;77.55;;;;;;;28.16;29.29;100812.56;4918603;29;20036;-78
2022/08/14 04:44:51;;;;;;;77.13;72.68;;;;;;;28.04;29.59;100807.91;4918660;29;20051;-78
2022/08/14 04:50:02;;;;;;;78.35;74.30;;;;;;;27.98;29.74;100808.56;4918337;29;20460;-75
2022/08/14 04:52:28;;;;;;;78.07;73.97;;;;;;;27.95;29.51;100810.09;4918125;29;20470;-74
2022/08/14 04:54:53;;;;;;;79.97;75.57;;;;;;;27.92;29.43;100802.47;4918271;29;20032;-78
2022/08/14 04:57:18;;;;;;;84.13;79.07;;;;;;;27.90;29.72;100806.78;4918150;29;20111;-75
2022/08/14 04:59:44;;;;;;;80.18;76.07;;;;;;;27.88;29.65;100809.91;4918143;29;20032;-79
2022/08/14 05:02:09;;;;;;;79.85;75.57;;;;;;;27.85;29.77;100818.16;4917874;29;20036;-83
2022/08/14 05:04:35;;;;;;;78.30;74.30;;;;;;;27.82;29.65;100812.16;4918471;29;20477;-76
2022/08/14 05:07:00;;;;;;;81.47;77.20;;;;;;;27.81;29.51;100806.91;4918453;29;20043;-77
2022/08/14 05:09:26;;;;;;;76.85;72.65;;;;;;;27.78;30.09;100811.22;4917986;29;20060;-76
2022/08/14 05:11:51;;;;;;;80.40;75.97;;;;;;;27.75;29.64;100805.59;4917922;29;20036;-78
2022/08/14 05:14:19;;;;;;;79.93;75.68;;;;;;;27.72;30.11;100809.88;4900933;29;20468;-75
2022/08/14 05:16:45;;;;;;;78.22;74.28;;;;;;;27.70;30.12;100803.09;4917842;29;20028;-77
2022/08/14 05:19:13;;;;;;;80.65;76.65;;;;;;;27.69;29.94;100795.91;4917855;29;20104;-78
2022/08/14 05:21:40;;;;;;;77.78;73.65;;;;;;;27.65;30.27;100801.38;4917408;29;20075;-80
2022/08/14 05:24:06;;;;;;;81.22;76.82;;;;;;;27.64;29.79;100802.53;4917798;29;20033;-79
2022/08/14 05:26:31;;;;;;;77.70;73.70;;;;;;;27.61;30.38;100801.25;4917908;29;20043;-77
2022/08/14 05:28:56;;;;;;;78.97;74.88;;;;;;;27.60;30.30;100801.66;4917767;29;20036;-78
2022/08/14 05:31:22;;;;;;;84.72;80.30;;;;;;;27.59;29.88;100802.78;4917633;29;20036;-78
2022/08/14 05:33:52;;;;;;;76.65;72.45;;;;;;;27.57;30.12;100803.16;4917541;29;20111;-77
2022/08/14 05:36:18;;;;;;;75.75;71.65;;;;;;;27.55;30.06;100801.91;4917477;29;20377;-78
2022/08/14 05:38:46;;;;;;;77.28;73.07;;;;;;;27.52;30.08;100795.09;4916380;29;20036;-77
2022/08/14 05:41:14;;;;;;;75.63;70.90;;;;;;;27.52;30.50;100799.84;4918071;29;20032;-77
2022/08/14 05:43:40;;;;;;;76.82;72.82;;;;;;;27.50;30.12;100797.41;4917749;29;20035;-78
2022/08/14 05:46:08;;;;;;;78.43;74.43;;;;;;;27.47;30.57;100795.38;4917451;29;20047;-78
2022/08/14 05:48:33;;;;;;;76.15;72.00;;;;;;;27.46;30.50;100798.50;4917963;29;20126;-78
2022/08/14 05:50:59;;;;;;;75.25;71.25;;;;;;;27.46;30.25;100801.25;4917838;29;20604;-77
2022/08/14 05:53:26;;;;;;;82.47;77.70;;;;;;;27.45;30.27;100794.13;4916692;29;20043;-78
2022/08/14 05:55:54;;;;;;;78.53;74.43;;;;;;;27.43;30.91;100800.00;4916847;29;20047;-79
2022/08/14 05:58:22;;;;;;;77.60;73.25;;;;;;;27.43;30.25;100800.00;4918005;29;20032;-80
2022/08/14 06:00:48;;;;;;;76.05;71.97;;;;;;;27.41;30.26;100803.13;4922250;29;20518;-76
2022/08/14 06:03:16;;;;;;;76.50;72.30;;;;;;;27.40;30.76;100800.72;4923587;29;20040;-77
2022/08/14 06:05:46;;;;;;;77.15;73.13;;;;;;;27.38;30.86;100803.03;4923258;29;20400;-75
2022/08/14 06:08:24;;;;;;;75.28;70.65;;;;;;;27.37;30.55;100796.69;4922601;29;20024;-77
2022/08/14 06:10:51;;;;;;;;;;;;;;;27.37;29.99;100804.22;4923646;29;20028;-78
2022/08/14 06:13:17;;;;;;;76.30;71.72;;;;;;;27.34;30.48;100797.41;4923515;29;19951;-77
2022/08/14 06:15:44;;;;;;;74.47;70.18;;;;;;;27.34;30.58;100796.56;4923116;29;20400;-78
2022/08/14 06:18:10;;;;;;;75.13;70.57;;;;;;;27.32;30.70;100788.63;4923178;29;20036;-76
2022/08/14 06:20:37;;;;;;;79.15;74.22;;;;;;;27.31;31.18;100787.00;4923317;29;20075;-77
2022/08/14 06:23:03;;;;;;;75.85;71.13;;;;;;;27.30;30.96;100785.41;4923430;29;20072;-76
2022/08/14 06:25:29;;;;;;;78.68;74.45;;;;;;;27.30;30.92;100790.94;4923050;29;20040;-76
2022/08/14 06:27:54;;;;;;;77.43;73.32;;;;;;;27.29;30.92;100789.34;4922094;29;20035;-75
2022/08/14 06:30:22;;;;;;;77.82;73.70;;;;;;;27.29;31.39;100788.53;4922189;29;20040;-77
2022/08/14 06:32:48;;;;;;;74.78;70.57;;;;;;;27.30;31.09;100790.16;4924007;29;20039;-76
2022/08/14 06:35:19;;;;;;;76.57;72.53;;;;;;;27.30;31.21;100784.59;4923319;29;20036;-77
2022/08/14 06:37:48;;;;;;;73.72;69.55;;;;;;;27.29;31.13;100786.56;4923865;29;20030;-79
2022/08/14 06:40:18;;;;;;;74.50;70.53;;;;;;;27.28;31.45;100784.94;4923061;29;20035;-78
2022/08/14 06:42:44;;;;;;;76.97;72.47;;;;;;;27.30;31.31;100782.63;4923824;29;20346;-80
2022/08/14 06:45:10;;;;;;;77.95;73.35;;;;;;;27.30;31.37;100777.09;4923547;29;20087;-78
2022/08/14 06:47:39;;;;;;;75.30;71.10;;;;;;;27.31;31.60;100777.88;4923232;29;20039;-79
2022/08/14 06:50:06;;;;;;;76.63;72.53;;;;;;;27.31;31.28;100775.91;4922980;29;20081;-78
2022/08/14 06:52:32;;;;;;;78.88;74.43;;;;;;;27.32;31.57;100774.75;4922781;29;20059;-78
2022/08/14 06:54:59;;;;;;;73.35;69.22;;;;;;;27.33;31.45;100776.38;4924057;29;20074;-77
2022/08/14 06:57:25;;;;;;;77.43;73.13;;;;;;;27.34;31.90;100775.22;4923105;29;20058;-84
2022/08/14 06:59:51;;;;;;;79.72;75.45;;;;;;;27.35;31.41;100776.03;4923210;29;20060;-76
2022/08/14 07:07:49;;;;;;;76.70;72.60;;;;;;;27.40;31.55;100784.09;4904517;29;20044;-77
2022/08/14 07:10:15;;;;;;;78.13;73.63;;;;;;;27.43;31.85;100783.34;4922195;29;20071;-76
2022/08/14 07:12:40;;;;;;;82.22;77.72;;;;;;;27.46;31.75;100781.84;4919897;29;20115;-80
2022/08/14 07:15:06;;;;;;;75.10;70.82;;;;;;;27.49;31.61;100770.81;4918985;29;20074;-77
2022/08/14 07:17:32;;;;;;;75.43;71.13;;;;;;;27.52;31.73;100770.13;4919734;29;20040;-77
2022/08/14 07:19:57;;;;;;;75.05;70.95;;;;;;;27.53;32.07;100771.72;4919273;29;20024;-78
2022/08/14 07:22:23;;;;;;;78.45;74.15;;;;;;;27.58;31.75;100773.44;4919681;29;20044;-77
2022/08/14 07:24:48;;;;;;;79.93;75.13;;;;;;;27.59;31.60;100769.50;4919573;29;20183;-80
2022/08/14 07:27:14;;;;;;;78.40;73.82;;;;;;;27.61;31.69;100762.41;4920146;29;20457;-79
2022/08/14 07:29:39;;;;;;;75.97;71.85;;;;;;;27.66;32.16;100774.44;4919761;29;20172;-80
2022/08/14 07:32:04;;;;;;;76.97;72.80;;;;;;;27.68;32.08;100772.91;4920255;29;20043;-77
2022/08/14 07:34:30;;;;;;;80.70;76.25;;;;;;;27.71;31.76;100765.84;4919685;29;20087;-77
2022/08/14 07:36:55;;;;;;;78.35;73.70;;;;;;;27.73;31.94;100767.09;4918580;29;20118;-77
2022/08/14 07:39:21;;;;;;;80.28;76.07;;;;;;;27.75;32.04;100770.31;4919546;29;20047;-84
2022/08/14 07:41:46;;;;;;;81.63;76.40;;;;;;;27.78;31.75;100769.59;4918835;29;20047;-82
2022/08/14 07:44:12;;;;;;;76.32;71.30;;;;;;;27.80;32.23;100774.78;4918383;29;20036;-79
2022/08/14 07:46:38;;;;;;;80.15;75.55;;;;;;;27.82;32.16;100767.75;4919446;29;20064;-78
2022/08/14 07:49:04;;;;;;;77.93;73.78;;;;;;;27.86;32.12;100762.25;4917843;29;20032;-78
2022/08/14 07:51:29;;;;;;;77.30;73.07;;;;;;;27.89;32.00;100767.09;4918092;29;20036;-76
2022/08/14 07:53:56;;;;;;;80.30;75.85;;;;;;;27.92;32.46;100760.84;4919514;29;20453;-80
2022/08/14 07:56:21;;;;;;;78.32;73.78;;;;;;;27.96;32.64;100755.34;4919920;29;20040;-79
2022/08/14 07:58:47;;;;;;;78.32;73.82;;;;;;;27.99;32.43;100760.97;4918844;29;20102;-79
2022/08/14 08:01:12;;;;;;;79.55;75.22;;;;;;;28.04;32.14;100766.25;4919247;29;20035;-78
2022/08/14 08:03:41;;;;;;;74.50;70.53;;;;;;;28.09;32.01;100769.94;4919441;29;20099;-78
2022/08/14 08:06:07;;;;;;;81.53;77.13;;;;;;;28.14;32.22;100772.44;4919705;29;20072;-76
2022/08/14 08:08:33;;;;;;;81.50;76.68;;;;;;;28.18;32.49;100768.56;4919302;29;20438;-79
2022/08/14 08:11:01;;;;;;;80.70;76.18;;;;;;;28.24;32.41;100755.19;4919364;29;20040;-77
2022/08/14 08:13:27;;;;;;;77.93;73.85;;;;;;;28.29;32.50;100752.16;4919428;29;20122;-78
2022/08/14 08:15:58;;;;;;;78.65;74.53;;;;;;;28.35;32.57;100755.44;4918902;29;20032;-78
2022/08/14 08:18:25;;;;;;;82.72;77.78;;;;;;;28.40;32.41;100742.09;4919593;29;20039;-76
2022/08/14 08:20:53;;;;;;;83.13;78.72;;;;;;;28.45;32.36;100741.81;4918944;29;20120;-77
2022/08/14 08:23:20;;;;;;;83.43;78.78;;;;;;;28.52;32.60;100730.03;4917103;29;20393;-76
2022/08/14 08:25:47;;;;;;;83.43;79.20;;;;;;;28.58;32.52;100730.56;4917514;29;20043;-77
2022/08/14 08:28:26;;;;;;;84.72;80.43;;;;;;;28.64;32.57;100731.88;4917513;29;20028;-77
2022/08/14 08:30:55;;;;;;;82.50;78.20;;;;;;;28.71;32.14;100743.16;4917474;29;20028;-81
2022/08/14 08:33:26;;;;;;;83.18;78.68;;;;;;;28.78;32.56;100746.06;4918770;29;20028;-81
2022/08/14 08:35:52;;;;;;;82.13;77.93;;;;;;;28.86;32.20;100752.56;4917462;29;20028;-78
2022/08/14 08:38:21;;;;;;;84.53;80.20;;;;;;;28.94;32.15;100747.97;4918741;29;20469;-77
2022/08/14 08:40:48;;;;;;;84.88;80.05;;;;;;;29.00;31.96;100746.47;4919042;29;20044;-80
2022/08/14 08:43:25;;;;;;;83.60;78.70;;;;;;;29.10;32.38;100743.13;4918410;29;20032;-81
2022/08/14 08:46:10;;;;;;;90.13;85.70;;;;;;;29.17;32.14;100740.47;4918930;29;20028;-78
2022/08/14 08:48:53;;;;;;;87.75;83.40;;;;;;;29.26;32.26;100731.91;4918566;29;20473;-76
2022/08/14 08:51:27;;;;;;;89.82;84.90;;;;;;;29.34;31.92;100733.63;4918682;29;20074;-76
2022/08/14 08:54:04;;;;;;;86.43;82.05;;;;;;;29.43;31.81;100736.16;4918159;29;20432;-79
2022/08/14 08:56:53;;;;;;;87.75;83.20;;;;;;;29.51;31.70;100738.69;4919045;29;20032;-81
2022/08/14 08:59:25;;;;;;;87.80;83.35;;;;;;;29.61;31.65;100740.06;4918414;29;20047;-76
2022/08/14 09:01:54;;;;;;;86.35;82.03;;;;;;;29.68;31.45;100731.81;4918577;29;20060;-76
2022/08/14 09:04:20;;;;;;;86.70;81.95;;;;;;;29.79;31.14;100733.97;4917821;29;20032;-78
2022/08/14 09:06:47;;;;;;;89.93;85.00;;;;;;;29.88;31.39;100732.53;4917921;29;20334;-78
2022/08/14 09:09:20;;;;;;;85.53;81.30;;;;;;;29.96;31.21;100725.91;4916882;29;20047;-78
2022/08/14 09:11:45;;;;;;;90.95;85.93;;;;;;;30.08;31.07;100722.09;4918229;29;20036;-79
2022/08/14 09:14:11;;;;;;;90.97;86.38;;;;;;;30.15;30.86;100724.97;4917811;29;20046;-77
2022/08/14 09:16:38;;;;;;;89.88;85.47;;;;;;;30.25;30.82;100719.97;4916714;29;20040;-83
2022/08/14 09:19:03;;;;;;;90.32;85.72;;;;;;;30.34;30.86;100720.47;4917469;29;20366;-82
2022/08/14 09:21:29;;;;;;;90.53;85.75;;;;;;;30.44;30.76;100713.44;4900734;29;20548;-78
2022/08/14 09:23:55;;;;;;;95.97;90.88;;;;;;;30.52;30.66;100713.16;4917605;29;20540;-80
2022/08/14 09:26:20;;;;;;;95.43;90.80;;;;;;;30.61;30.37;100710.84;4916654;29;20425;-79
2022/08/14 09:28:46;;;;;;;91.60;87.20;;;;;;;30.71;30.22;100717.75;4917883;29;20050;-81
2022/08/14 09:31:13;;;;;;;87.57;82.97;;;;;;;30.78;30.28;100715.03;4916243;29;20451;-79
2022/08/14 09:33:55;;;;;;;88.28;84.07;;;;;;;30.88;30.42;100702.44;4916572;29;20083;-78
2022/08/14 09:36:38;;;;;;;93.82;89.00;;;;;;;30.98;29.69;100698.94;4917898;29;20120;-80
2022/08/14 09:39:06;;;;;;;94.75;90.05;;;;;;;31.09;29.73;100692.66;4917591;29;20036;-79
2022/08/14 09:42:23;;;;;;;91.93;87.20;;;;;;;31.17;29.38;100688.75;4917550;29;20036;-82
2022/08/14 09:45:11;;;;;;;96.45;91.82;;;;;;;31.30;28.96;100678.09;4896123;29;20041;-77
2022/08/14 09:47:56;;;;;;;95.05;90.35;;;;;;;31.38;28.83;100680.59;4916229;29;20071;-78
2022/08/14 09:50:44;;;;;;;92.90;88.32;;;;;;;31.47;28.94;100678.28;4915890;29;20052;-78
2022/08/14 09:53:11;;;;;;;94.68;90.18;;;;;;;31.56;28.78;100685.53;4917189;29;20170;-78
2022/08/14 09:55:37;;;;;;;95.78;91.32;;;;;;;31.62;28.56;100673.59;4917232;29;20040;-80
2022/08/14 09:58:17;;;;;;;96.93;92.22;;;;;;;31.72;28.00;100674.84;4916786;29;20073;-78
2022/08/14 10:00:46;;;;;;;97.45;92.93;;;;;;;31.78;28.17;100670.50;4917018;29;20058;-79
2022/08/14 10:03:11;;;;;;;96.97;92.38;;;;;;;31.86;27.92;100671.34;4917068;29;20047;-80
2022/08/14 10:05:38;;;;;;;96.78;92.28;;;;;;;31.93;27.63;100660.22;4918016;29;20064;-77
2022/08/14 10:08:15;;;;;;;99.35;94.55;;;;;;;31.99;27.53;100667.06;4917127;29;20043;-79
2022/08/14 10:10:41;;;;;;;99.05;94.32;;;;;;;32.07;27.75;100665.09;4917503;29;20066;-81
2022/08/14 10:13:20;;;;;;;97.75;93.25;;;;;;;32.14;27.60;100658.75;4920243;29;20036;-79
2022/08/14 10:15:48;;;;;;;99.40;94.40;;;;;;;32.20;27.31;100659.97;4921452;29;20043;-78
2022/08/14 10:18:16;;;;;;;98.43;93.70;;;;;;;32.26;27.27;100644.44;4919272;29;20036;-76
2022/08/14 10:20:56;;;;;;;99.70;95.07;;;;;;;32.32;27.42;100651.25;4919471;29;20040;-79
2022/08/14 10:23:23;;;;;;;96.40;91.75;;;;;;;32.38;27.26;100652.44;4918062;29;20118;-80
2022/08/14 10:25:52;;;;;;;98.30;93.67;;;;;;;32.45;27.03;100658.06;4917178;29;20457;-77
2022/08/14 10:28:20;;;;;;;102.13;97.47;;;;;;;32.49;27.11;100647.72;4918072;29;20381;-78
2022/08/14 10:30:51;;;;;;;103.47;98.63;;;;;;;32.57;26.97;100642.16;4885407;29;20087;-78
2022/08/14 10:33:28;;;;;;;100.03;95.38;;;;;;;32.62;26.67;100639.78;4918187;29;20096;-79
2022/08/14 10:35:55;;;;;;;100.57;95.97;;;;;;;32.67;26.70;100638.59;4919669;29;20067;-81
2022/08/14 10:38:30;;;;;;;99.63;94.93;;;;;;;32.72;26.68;100633.41;4918552;29;20036;-78
2022/08/14 10:40:56;;;;;;;100.38;95.82;;;;;;;32.75;26.57;100635.41;4917200;29;20059;-78
2022/08/14 10:43:26;;;;;;;101.60;97.00;;;;;;;32.80;26.57;100623.03;4917596;29;20032;-80
2022/08/14 10:45:57;;;;;;;101.13;96.57;;;;;;;32.84;26.32;100615.44;4919773;29;20032;-78
2022/08/14 10:48:23;;;;;;;102.78;98.07;;;;;;;32.89;26.34;100619.84;4920138;29;20452;-80
2022/08/14 10:50:50;;;;;;;99.47;94.88;;;;;;;32.92;26.36;100619.84;4920646;29;20072;-82
2022/08/14 10:53:27;;;;;;;101.05;96.45;;;;;;;32.97;26.58;100611.03;4919386;29;20438;-78
2022/08/14 10:55:58;;;;;;;102.45;97.75;;;;;;;33.01;26.19;100613.03;4919273;29;20379;-80
2022/08/14 10:58:28;;;;;;;107.70;102.68;;;;;;;33.06;25.94;100609.88;4920387;29;20456;-80
2022/08/14 11:00:56;;;;;;;101.80;97.30;;;;;;;33.09;25.93;100612.69;4918785;29;20373;-78
2022/08/14 11:03:22;;;;;;;;;;;;;;;33.12;26.43;100614.69;4920745;29;20036;-84
2022/08/14 11:05:50;;;;;;;102.30;97.70;;;;;;;33.15;26.00;100616.66;4920151;29;19919;-79
2022/08/14 11:08:18;;;;;;;104.00;99.20;;;;;;;33.18;25.83;100609.47;4920348;29;20072;-80
2022/08/14 11:11:02;;;;;;;98.40;93.70;;;;;;;33.21;25.79;100603.06;4920664;29;20112;-81
2022/08/14 11:13:29;;;;;;;99.32;94.80;;;;;;;33.23;25.85;100603.47;4919983;29;20032;-78
2022/08/14 11:15:59;;;;;;;102.37;97.67;;;;;;;33.27;26.16;100600.69;4919603;29;20028;-82
2022/08/14 11:18:26;;;;;;;100.45;95.90;;;;;;;33.30;25.82;100606.25;4919041;29;20480;-80
2022/08/14 11:20:54;;;;;;;108.80;103.78;;;;;;;33.35;25.45;100605.84;4919932;29;20092;-78
2022/08/14 11:23:21;;;;;;;;;;;;;;;33.38;26.04;100609.84;4918910;29;20556;-79
2022/08/14 11:25:48;;;;;;;101.28;96.75;;;;;;;33.39;25.88;100605.84;4919763;29;19915;-80
2022/08/14 11:28:14;;;;;;;107.28;102.10;;;;;;;33.40;25.46;100599.84;4918442;29;20043;-79
2022/08/14 11:30:43;;;;;;;102.85;97.85;;;;;;;33.45;25.43;100604.25;4918387;29;20032;-79